CXI weather

Cassidy International Airport
Banana, Line Islands, Kiribati

Public forecast

Using degrees Celsius for public forecast. Weather courtesy of forecast.io.

Current aviation weather report (METAR) for Cassidy International Airport

Retrieved 2020/02/18 09:00 UTC (5 minutes ago):

PLCH 180900Z 09008KT 9999 FEW020 27/23 Q1006

Aviation forecast (TAF) for Cassidy International Airport

Retrieved 2020/02/18 06:00 UTC (3 hours ago):

TAF PLCH 180507Z 1806/1906 10006KT 9999 SCT019 BKN100